Time,TemperatureF,DewpointF,PressureIn,WindDirection,WindDirectionDegrees,WindSpeedMPH,WindSpeedGustMPH,Humidity,HourlyPrecipIn,Conditions,Clouds,dailyrainin,SoftwareType,DateUTC
2013-05-26 00:00:00,55.2,30.1,29.21,WSW,246,0.0,2.7,38,0.00,,---,0.00,VWS V14.01,2013-05-26 04:00:00,
2013-05-26 00:01:00,61.2,37.3,29.15,East,100,0.0,2.7,41,0.00,,---,0.00,VWS V14.01,2013-05-26 04:01:00,
2013-05-26 00:02:00,61.2,37.3,29.15,East,100,3.6,3.6,41,0.00,,---,0.00,VWS V14.01,2013-05-26 04:02:00,
2013-05-26 00:03:00,61.2,37.3,29.15,East,100,3.1,4.0,41,0.00,,---,0.00,VWS V14.01,2013-05-26 04:03:00,
2013-05-26 00:04:00,61.0,37.8,29.15,East,100,0.0,3.1,42,0.00,,---,0.00,VWS V14.01,2013-05-26 04:04:00,
2013-05-26 00:05:00,61.0,37.8,29.15,East,100,0.0,0.0,42,0.00,,---,0.00,VWS V14.01,2013-05-26 04:05:00,
2013-05-26 00:06:00,61.0,37.8,29.15,East,100,0.0,0.0,42,0.00,,---,0.00,VWS V14.01,2013-05-26 04:06:00,
2013-05-26 00:07:00,61.0,37.8,29.15,East,100,0.0,0.0,42,0.00,,---,0.00,VWS V14.01,2013-05-26 04:07:00,
2013-05-26 00:08:00,61.0,38.3,29.15,East,100,0.0,0.0,43,0.00,,---,0.00,VWS V14.01,2013-05-26 04:08:00,
2013-05-26 00:09:00,61.0,38.3,29.15,East,100,0.0,0.0,43,0.00,,---,0.00,VWS V14.01,2013-05-26 04:09:00,
2013-05-26 00:10:00,61.0,38.9,29.15,ESE,102,3.1,4.0,44,0.00,,---,0.00,VWS V14.01,2013-05-26 04:10:00,
2013-05-26 00:11:00,60.8,38.8,29.15,ESE,102,0.0,3.1,44,0.00,,---,0.00,VWS V14.01,2013-05-26 04:11:00,
2013-05-26 00:12:00,60.8,38.8,29.15,ESE,102,0.0,3.1,44,0.00,,---,0.00,VWS V14.01,2013-05-26 04:12:00,
2013-05-26 00:13:00,60.8,38.8,29.15,ESE,102,0.0,0.0,44,0.00,,---,0.00,VWS V14.01,2013-05-26 04:13:00,
2013-05-26 00:14:00,60.8,38.8,29.15,ESE,102,0.0,0.0,44,0.00,,---,0.00,VWS V14.01,2013-05-26 04:14:00,
2013-05-26 00:15:00,60.8,38.8,29.15,ESE,102,0.0,0.0,44,0.00,,---,0.00,VWS V14.01,2013-05-26 04:15:00,
2013-05-26 00:16:00,60.8,38.8,29.15,ESE,102,0.0,0.0,44,0.00,,---,0.00,VWS V14.01,2013-05-26 04:16:00,
2013-05-26 00:17:00,60.8,38.8,29.15,ESE,102,0.0,0.0,44,0.00,,---,0.00,VWS V14.01,2013-05-26 04:17:00,
2013-05-26 00:18:00,60.6,38.6,29.15,ESE,102,0.0,0.0,44,0.00,,---,0.00,VWS V14.01,2013-05-26 04:18:00,
2013-05-26 00:19:00,60.6,38.6,29.15,ESE,102,0.0,0.0,44,0.00,,---,0.00,VWS V14.01,2013-05-26 04:19:00,
2013-05-26 00:20:00,60.6,38.6,29.15,ESE,102,0.0,0.0,44,0.00,,---,0.00,VWS V14.01,2013-05-26 04:20:00,
2013-05-26 00:21:00,60.6,38.6,29.15,ESE,102,0.0,0.0,44,0.00,,---,0.00,VWS V14.01,2013-05-26 04:21:00,
2013-05-26 00:22:00,60.6,39.2,29.15,ESE,102,3.1,3.1,45,0.00,,---,0.00,VWS V14.01,2013-05-26 04:22:00,
2013-05-26 00:23:00,60.6,39.8,29.15,ESE,102,3.1,3.6,46,0.00,,---,0.00,VWS V14.01,2013-05-26 04:23:00,
2013-05-26 00:24:00,60.6,39.8,29.15,ESE,102,3.6,3.6,46,0.00,,---,0.00,VWS V14.01,2013-05-26 04:24:00,
2013-05-26 00:25:00,60.6,39.8,29.15,ESE,102,2.7,3.6,46,0.00,,---,0.00,VWS V14.01,2013-05-26 04:25:00,
2013-05-26 00:26:00,60.6,40.3,29.15,East,101,4.0,4.5,47,0.00,,---,0.00,VWS V14.01,2013-05-26 04:26:00,
2013-05-26 00:27:00,60.6,40.3,29.15,East,96,4.0,4.0,47,0.00,,---,0.00,VWS V14.01,2013-05-26 04:27:00,
2013-05-26 00:28:00,60.6,40.3,29.15,East,98,3.1,4.9,47,0.00,,---,0.00,VWS V14.01,2013-05-26 04:28:00,
2013-05-26 00:29:00,60.6,40.3,29.15,East,99,3.1,4.5,47,0.00,,---,0.00,VWS V14.01,2013-05-26 04:29:00,
2013-05-26 00:30:00,60.6,40.3,29.15,ESE,106,3.6,4.0,47,0.00,,---,0.00,VWS V14.01,2013-05-26 04:30:00,
2013-05-26 00:31:00,60.6,40.3,29.15,East,100,3.1,4.0,47,0.00,,---,0.00,VWS V14.01,2013-05-26 04:31:00,
2013-05-26 00:32:00,60.6,39.8,29.15,East,96,3.6,3.6,46,0.00,,---,0.00,VWS V14.01,2013-05-26 04:32:00,
2013-05-26 00:33:00,60.6,39.8,29.15,East,96,3.1,3.6,46,0.00,,---,0.00,VWS V14.01,2013-05-26 04:33:00,
2013-05-26 00:34:00,60.6,39.8,29.15,East,92,4.0,4.5,46,0.00,,---,0.00,VWS V14.01,2013-05-26 04:34:00,
2013-05-26 00:35:00,60.6,39.2,29.15,ESE,111,4.0,4.5,45,0.00,,---,0.00,VWS V14.01,2013-05-26 04:35:00,
2013-05-26 00:36:00,60.6,39.2,29.15,ESE,107,4.5,4.9,45,0.00,,---,0.00,VWS V14.01,2013-05-26 04:36:00,
2013-05-26 00:37:00,60.6,38.6,29.15,ESE,104,4.5,5.8,44,0.00,,---,0.00,VWS V14.01,2013-05-26 04:37:00,
2013-05-26 00:38:00,60.6,38.6,29.15,East,95,3.6,4.5,44,0.00,,---,0.00,VWS V14.01,2013-05-26 04:38:00,
2013-05-26 00:39:00,60.6,38.6,29.15,East,95,3.1,4.0,44,0.00,,---,0.00,VWS V14.01,2013-05-26 04:39:00,
2013-05-26 00:40:00,60.6,38.6,29.15,ESE,110,4.9,6.3,44,0.00,,---,0.00,VWS V14.01,2013-05-26 04:40:00,
2013-05-26 00:41:00,60.6,38.6,29.15,East,90,3.1,5.4,44,0.00,,---,0.00,VWS V14.01,2013-05-26 04:41:00,
2013-05-26 00:42:00,60.8,38.2,29.12,ESE,108,4.9,4.9,43,0.00,,---,0.00,VWS V14.01,2013-05-26 04:42:00,
2013-05-26 00:43:00,60.8,38.2,29.12,East,100,4.0,5.4,43,0.00,,---,0.00,VWS V14.01,2013-05-26 04:43:00,
2013-05-26 00:44:00,60.8,38.2,29.12,East,100,3.1,4.0,43,0.00,,---,0.00,VWS V14.01,2013-05-26 04:44:00,
2013-05-26 00:45:00,60.8,38.8,29.12,ESE,116,5.8,5.8,44,0.00,,---,0.00,VWS V14.01,2013-05-26 04:45:00,
2013-05-26 00:46:00,60.8,38.2,29.12,ESE,117,0.0,5.8,43,0.00,,---,0.00,VWS V14.01,2013-05-26 04:46:00,
2013-05-26 00:47:00,60.8,38.2,29.12,ESE,105,3.1,4.5,43,0.00,,---,0.00,VWS V14.01,2013-05-26 04:47:00,
2013-05-26 00:48:00,60.8,38.2,29.12,East,90,3.6,4.0,43,0.00,,---,0.00,VWS V14.01,2013-05-26 04:48:00,
2013-05-26 00:49:00,60.8,38.2,29.12,East,90,2.7,4.0,43,0.00,,---,0.00,VWS V14.01,2013-05-26 04:49:00,
2013-05-26 00:50:00,60.8,38.2,29.12,SE,130,4.5,5.8,43,0.00,,---,0.00,VWS V14.01,2013-05-26 04:50:00,
2013-05-26 00:51:00,61.0,38.3,29.12,East,91,4.0,4.5,43,0.00,,---,0.00,VWS V14.01,2013-05-26 04:51:00,
2013-05-26 00:52:00,61.0,38.3,29.12,ESE,103,3.6,5.4,43,0.00,,---,0.00,VWS V14.01,2013-05-26 04:52:00,
2013-05-26 00:53:00,61.0,37.8,29.12,ESE,108,4.0,5.4,42,0.00,,---,0.00,VWS V14.01,2013-05-26 04:53:00,
2013-05-26 00:54:00,61.0,37.8,29.12,East,101,3.6,4.5,42,0.00,,---,0.00,VWS V14.01,2013-05-26 04:54:00,
2013-05-26 00:55:00,61.0,37.8,29.12,East,97,4.9,6.3,42,0.00,,---,0.00,VWS V14.01,2013-05-26 04:55:00,
2013-05-26 00:56:00,61.0,37.1,29.12,ESE,107,4.5,5.4,41,0.00,,---,0.00,VWS V14.01,2013-05-26 04:56:00,
2013-05-26 00:57:00,61.0,37.1,29.12,SE,140,4.0,4.5,41,0.00,,---,0.00,VWS V14.01,2013-05-26 04:57:00,
2013-05-26 00:58:00,61.2,37.3,29.12,ESE,104,4.0,4.5,41,0.00,,---,0.00,VWS V14.01,2013-05-26 04:58:00,
2013-05-26 00:59:00,61.2,37.3,29.12,ESE,114,3.1,4.9,41,0.00,,---,0.00,VWS V14.01,2013-05-26 04:59:00,
2013-05-26 01:00:00,61.2,37.3,29.12,East,101,4.5,4.9,41,0.00,,---,0.00,VWS V14.01,2013-05-26 05:00:00,
2013-05-26 01:01:00,61.2,37.3,29.12,East,100,4.5,4.9,41,0.00,,---,0.00,VWS V14.01,2013-05-26 05:01:00,
2013-05-26 01:02:00,61.2,37.3,29.12,East,93,4.0,4.9,41,0.00,,---,0.00,VWS V14.01,2013-05-26 05:02:00,
2013-05-26 01:03:00,61.2,36.7,29.12,ESE,106,3.6,5.4,40,0.00,,---,0.00,VWS V14.01,2013-05-26 05:03:00,
2013-05-26 01:04:00,61.2,36.7,29.12,ESE,109,0.0,3.6,40,0.00,,---,0.00,VWS V14.01,2013-05-26 05:04:00,
2013-05-26 01:05:00,61.3,36.8,29.12,ESE,110,0.0,0.0,40,0.00,,---,0.00,VWS V14.01,2013-05-26 05:05:00,
2013-05-26 01:06:00,61.3,37.5,29.12,ESE,110,0.0,0.0,41,0.00,,---,0.00,VWS V14.01,2013-05-26 05:06:00,
2013-05-26 01:07:00,61.3,37.5,29.12,ESE,113,4.9,4.9,41,0.00,,---,0.00,VWS V14.01,2013-05-26 05:07:00,
2013-05-26 01:08:00,61.3,36.8,29.12,ESE,108,2.7,4.9,40,0.00,,---,0.00,VWS V14.01,2013-05-26 05:08:00,
2013-05-26 01:09:00,61.3,36.8,29.12,ESE,112,0.0,2.7,40,0.00,,---,0.00,VWS V14.01,2013-05-26 05:09:00,
2013-05-26 01:10:00,61.3,36.8,29.12,ESE,116,4.5,4.5,40,0.00,,---,0.00,VWS V14.01,2013-05-26 05:10:00,
2013-05-26 01:11:00,61.3,35.5,29.12,ESE,119,4.0,5.8,38,0.00,,---,0.00,VWS V14.01,2013-05-26 05:11:00,
2013-05-26 01:12:00,61.3,35.5,29.12,ESE,114,4.5,4.5,38,0.00,,---,0.00,VWS V14.01,2013-05-26 05:12:00,
2013-05-26 01:13:00,61.5,35.0,29.12,SE,131,3.6,4.9,37,0.00,,---,0.00,VWS V14.01,2013-05-26 05:13:00,
2013-05-26 01:14:00,61.5,35.0,29.12,ESE,108,0.0,3.6,37,0.00,,---,0.00,VWS V14.01,2013-05-26 05:14:00,
2013-05-26 01:15:00,61.5,35.0,29.12,East,85,3.6,4.5,37,0.00,,---,0.00,VWS V14.01,2013-05-26 05:15:00,
2013-05-26 01:16:00,61.5,35.0,29.12,East,85,0.0,3.6,37,0.00,,---,0.00,VWS V14.01,2013-05-26 05:16:00,
2013-05-26 01:17:00,61.7,35.2,29.12,ESE,108,3.6,4.5,37,0.00,,---,0.00,VWS V14.01,2013-05-26 05:17:00,
2013-05-26 01:18:00,61.7,35.2,29.12,ESE,111,3.6,4.0,37,0.00,,---,0.00,VWS V14.01,2013-05-26 05:18:00,
2013-05-26 01:19:00,54.0,28.3,29.23,North,351,4.0,4.0,37,0.00,,---,0.00,VWS V14.01,2013-05-26 05:19:00,
2013-05-26 01:20:00,61.7,35.2,29.12,SSE,149,2.7,3.1,37,0.00,,---,0.00,VWS V14.01,2013-05-26 05:20:00,
2013-05-26 01:21:00,61.7,34.5,29.12,ENE,75,3.6,4.9,36,0.00,,---,0.00,VWS V14.01,2013-05-26 05:21:00,
2013-05-26 01:22:00,61.7,34.5,29.12,East,98,4.0,4.0,36,0.00,,---,0.00,VWS V14.01,2013-05-26 05:22:00,
2013-05-26 01:23:00,61.7,34.5,29.12,East,94,5.4,5.4,36,0.00,,---,0.00,VWS V14.01,2013-05-26 05:23:00,
2013-05-26 01:24:00,54.1,28.5,29.23,North,351,0.0,3.1,37,0.00,,---,0.00,VWS V14.01,2013-05-26 05:24:00,
2013-05-26 01:25:00,61.7,33.8,29.12,ESE,102,5.4,5.4,35,0.00,,---,0.00,VWS V14.01,2013-05-26 05:25:00,
2013-05-26 01:27:00,61.9,33.2,29.12,SE,126,3.6,4.5,34,0.00,,---,0.00,VWS V14.01,2013-05-26 05:27:00,
2013-05-26 01:28:00,61.9,33.2,29.12,ESE,109,4.0,5.4,34,0.00,,---,0.00,VWS V14.01,2013-05-26 05:28:00,
2013-05-26 01:29:00,61.9,33.2,29.12,ESE,112,4.5,4.9,34,0.00,,---,0.00,VWS V14.01,2013-05-26 05:29:00,
2013-05-26 01:30:00,61.9,33.2,29.12,ESE,107,5.8,6.3,34,0.00,,---,0.00,VWS V14.01,2013-05-26 05:30:00,
2013-05-26 01:31:00,61.9,33.2,29.12,SE,126,6.7,6.9,34,0.00,,---,0.00,VWS V14.01,2013-05-26 05:31:00,
2013-05-26 01:32:00,54.0,27.6,29.23,North,351,0.0,0.0,36,0.00,,---,0.00,VWS V14.01,2013-05-26 05:32:00,
2013-05-26 01:33:00,62.1,32.6,29.12,SSE,160,4.5,4.5,33,0.00,,---,0.00,VWS V14.01,2013-05-26 05:33:00,
2013-05-26 01:34:00,62.1,32.6,29.12,ESE,112,4.0,5.8,33,0.00,,---,0.00,VWS V14.01,2013-05-26 05:34:00,
2013-05-26 01:36:00,62.1,31.9,29.12,ESE,112,4.9,5.8,32,0.00,,---,0.00,VWS V14.01,2013-05-26 05:36:00,
2013-05-26 01:38:00,54.0,27.6,29.23,NNW,334,2.7,3.6,36,0.00,,---,0.00,VWS V14.01,2013-05-26 05:38:00,
2013-05-26 01:40:00,62.1,31.1,29.12,SE,130,4.9,8.3,31,0.00,,---,0.00,VWS V14.01,2013-05-26 05:40:00,
2013-05-26 01:41:00,62.1,30.3,29.12,ESE,121,4.9,4.9,30,0.00,,---,0.00,VWS V14.01,2013-05-26 05:41:00,
2013-05-26 01:43:00,62.1,31.1,29.12,ESE,116,3.6,5.8,31,0.00,,---,0.00,VWS V14.01,2013-05-26 05:43:00,
2013-05-26 01:44:00,62.1,30.3,29.12,East,88,3.6,5.4,30,0.00,,---,0.00,VWS V14.01,2013-05-26 05:44:00,
2013-05-26 01:46:00,62.1,29.5,29.12,SE,146,3.6,5.8,29,0.00,,---,0.00,VWS V14.01,2013-05-26 05:46:00,
2013-05-26 01:47:00,53.8,26.1,29.21,NNW,334,0.0,0.0,34,0.00,,---,0.00,VWS V14.01,2013-05-26 05:47:00,
2013-05-26 01:48:00,62.2,28.8,29.12,SE,144,3.6,5.8,28,0.00,,---,0.00,VWS V14.01,2013-05-26 05:48:00,
2013-05-26 01:53:00,62.2,28.8,29.12,SE,124,4.0,4.5,28,0.00,,---,0.00,VWS V14.01,2013-05-26 05:53:00,
2013-05-26 01:54:00,53.4,26.5,29.21,NNW,334,0.0,0.0,35,0.00,,---,0.00,VWS V14.01,2013-05-26 05:54:00,
2013-05-26 01:57:00,62.1,28.6,29.12,ESE,112,5.8,6.9,28,0.00,,---,0.00,VWS V14.01,2013-05-26 05:57:00,
2013-05-26 01:59:00,53.1,26.1,29.21,NNW,334,0.0,0.0,35,0.00,,---,0.00,VWS V14.01,2013-05-26 05:59:00,
2013-05-26 02:03:00,62.1,28.6,29.12,ESE,115,3.6,5.4,28,0.00,,---,0.00,VWS V14.01,2013-05-26 06:03:00,
2013-05-26 02:04:00,52.7,25.8,29.21,NNW,334,0.0,3.6,35,0.00,,---,0.00,VWS V14.01,2013-05-26 06:04:00,
2013-05-26 02:09:00,52.3,25.5,29.21,NNW,334,0.0,0.0,35,0.00,,---,0.00,VWS V14.01,2013-05-26 06:09:00,
2013-05-26 02:14:00,51.6,26.2,29.21,NNW,334,0.0,0.0,37,0.00,,---,0.00,VWS V14.01,2013-05-26 06:14:00,
2013-05-26 02:19:00,51.3,25.9,29.21,NNW,334,0.0,0.0,37,0.00,,---,0.00,VWS V14.01,2013-05-26 06:19:00,
2013-05-26 02:24:00,50.7,26.0,29.21,NNW,334,0.0,0.0,38,0.00,,---,0.00,VWS V14.01,2013-05-26 06:24:00,
2013-05-26 02:29:00,50.5,26.5,29.21,NNW,334,0.0,0.0,39,0.00,,---,0.00,VWS V14.01,2013-05-26 06:29:00,
2013-05-26 02:34:00,50.4,27.6,29.21,NNW,334,0.0,0.0,41,0.00,,---,0.00,VWS V14.01,2013-05-26 06:34:00,
2013-05-26 02:39:00,50.0,27.2,29.21,NNW,334,0.0,0.0,41,0.00,,---,0.00,VWS V14.01,2013-05-26 06:39:00,
2013-05-26 02:44:00,49.6,27.5,29.21,NNW,334,0.0,0.0,42,0.00,,---,0.00,VWS V14.01,2013-05-26 06:44:00,
2013-05-26 02:49:00,49.1,27.0,29.21,NNW,334,0.0,0.0,42,0.00,,---,0.00,VWS V14.01,2013-05-26 06:49:00,
2013-05-26 02:54:00,48.9,27.4,29.21,NNW,334,0.0,0.0,43,0.00,,---,0.00,VWS V14.01,2013-05-26 06:54:00,
2013-05-26 02:59:00,48.9,28.0,29.21,NNW,334,0.0,0.0,44,0.00,,---,0.00,VWS V14.01,2013-05-26 06:59:00,
2013-05-26 03:04:00,48.9,29.6,29.21,NNW,334,0.0,0.0,47,0.00,,---,0.00,VWS V14.01,2013-05-26 07:04:00,
2013-05-26 03:09:00,48.9,30.1,29.21,NNW,334,0.0,0.0,48,0.00,,---,0.00,VWS V14.01,2013-05-26 07:09:00,
2013-05-26 03:14:00,49.1,30.8,29.21,NNW,334,0.0,0.0,49,0.00,,---,0.00,VWS V14.01,2013-05-26 07:14:00,
2013-05-26 03:19:00,48.9,30.6,29.21,NNW,334,0.0,0.0,49,0.00,,---,0.00,VWS V14.01,2013-05-26 07:19:00,
2013-05-26 03:24:00,48.7,30.5,29.21,NNW,334,0.0,0.0,49,0.00,,---,0.00,VWS V14.01,2013-05-26 07:24:00,
2013-05-26 03:29:00,48.7,31.0,29.21,NNW,334,0.0,0.0,50,0.00,,---,0.00,VWS V14.01,2013-05-26 07:29:00,
2013-05-26 03:34:00,48.9,32.6,29.21,NNW,334,0.0,0.0,53,0.00,,---,0.00,VWS V14.01,2013-05-26 07:34:00,
2013-05-26 03:39:00,48.7,31.9,29.21,NNW,334,0.0,0.0,52,0.00,,---,0.00,VWS V14.01,2013-05-26 07:39:00,
2013-05-26 03:44:00,48.7,31.9,29.21,NNW,334,0.0,0.0,52,0.00,,---,0.00,VWS V14.01,2013-05-26 07:44:00,
2013-05-26 03:49:00,48.4,32.0,29.21,NNW,334,0.0,0.0,53,0.00,,---,0.00,VWS V14.01,2013-05-26 07:49:00,
2013-05-26 03:54:00,48.0,31.2,29.21,NNW,334,0.0,0.0,52,0.00,,---,0.00,VWS V14.01,2013-05-26 07:54:00,
2013-05-26 03:59:00,47.7,30.9,29.18,NNW,334,0.0,0.0,52,0.00,,---,0.00,VWS V14.01,2013-05-26 07:59:00,
2013-05-26 04:04:00,47.5,31.2,29.18,NNW,334,0.0,0.0,53,0.00,,---,0.00,VWS V14.01,2013-05-26 08:04:00,
2013-05-26 04:09:00,47.3,31.5,29.18,NNW,334,0.0,0.0,54,0.00,,---,0.00,VWS V14.01,2013-05-26 08:09:00,
2013-05-26 04:14:00,47.1,32.2,29.21,NNW,334,0.0,0.0,56,0.00,,---,0.00,VWS V14.01,2013-05-26 08:14:00,
2013-05-26 04:19:00,46.9,32.1,29.21,NNW,334,0.0,0.0,56,0.00,,---,0.00,VWS V14.01,2013-05-26 08:19:00,
2013-05-26 04:24:00,46.9,32.1,29.21,NNW,334,0.0,0.0,56,0.00,,---,0.00,VWS V14.01,2013-05-26 08:24:00,
2013-05-26 04:29:00,46.8,31.9,29.18,NNW,334,0.0,0.0,56,0.00,,---,0.00,VWS V14.01,2013-05-26 08:29:00,
2013-05-26 04:34:00,46.6,31.7,29.18,NNW,334,0.0,0.0,56,0.00,,---,0.00,VWS V14.01,2013-05-26 08:34:00,
2013-05-26 04:39:00,46.4,31.6,29.18,NNW,334,0.0,0.0,56,0.00,,---,0.00,VWS V14.01,2013-05-26 08:39:00,
2013-05-26 04:44:00,46.2,31.4,29.21,NNW,334,0.0,0.0,56,0.00,,---,0.00,VWS V14.01,2013-05-26 08:44:00,
2013-05-26 04:48:00,56.7,43.8,29.12,ESE,110,0.0,0.0,62,0.00,,---,0.00,VWS V14.01,2013-05-26 08:48:00,
2013-05-26 04:49:00,46.0,31.2,29.21,NNW,334,0.0,0.0,56,0.00,,---,0.00,VWS V14.01,2013-05-26 08:49:00,
2013-05-26 04:50:00,56.7,43.8,29.12,ESE,110,0.0,0.0,62,0.00,,---,0.00,VWS V14.01,2013-05-26 08:50:00,
2013-05-26 04:51:00,56.5,43.6,29.12,ESE,110,0.0,0.0,62,0.00,,---,0.00,VWS V14.01,2013-05-26 08:51:00,
2013-05-26 04:52:00,56.5,44.0,29.12,ESE,110,0.0,0.0,63,0.00,,---,0.00,VWS V14.01,2013-05-26 08:52:00,
2013-05-26 04:54:00,46.0,31.7,29.21,NNW,334,0.0,0.0,57,0.00,,---,0.00,VWS V14.01,2013-05-26 08:54:00,
2013-05-26 04:58:00,56.5,44.5,29.12,ESE,110,0.0,0.0,64,0.00,,---,0.00,VWS V14.01,2013-05-26 08:58:00,
2013-05-26 04:59:00,45.7,31.8,29.21,NNW,334,0.0,0.0,58,0.00,,---,0.00,VWS V14.01,2013-05-26 08:59:00,
2013-05-26 05:02:00,56.3,45.1,29.12,ESE,110,0.0,0.0,66,0.00,,---,0.00,VWS V14.01,2013-05-26 09:02:00,
2013-05-26 05:03:00,56.3,45.5,29.12,ESE,110,0.0,0.0,67,0.00,,---,0.00,VWS V14.01,2013-05-26 09:03:00,
2013-05-26 05:04:00,45.5,32.0,29.21,NNW,334,0.0,0.0,59,0.00,,---,0.00,VWS V14.01,2013-05-26 09:04:00,
2013-05-26 05:08:00,55.9,45.9,29.12,ESE,110,0.0,0.0,69,0.04,,---,0.04,VWS V14.01,2013-05-26 09:08:00,
2013-05-26 05:09:00,45.3,32.3,29.21,NNW,334,0.0,0.0,60,0.00,,---,0.00,VWS V14.01,2013-05-26 09:09:00,
2013-05-26 05:10:00,55.8,45.8,29.12,ESE,110,0.0,0.0,69,0.04,,---,0.04,VWS V14.01,2013-05-26 09:10:00,
2013-05-26 05:11:00,55.8,45.8,29.12,ESE,110,0.0,0.0,69,0.04,,---,0.04,VWS V14.01,2013-05-26 09:11:00,
2013-05-26 05:14:00,45.3,32.7,29.21,NNW,334,0.0,0.0,61,0.00,,---,0.00,VWS V14.01,2013-05-26 09:14:00,
2013-05-26 05:18:00,55.4,45.4,29.12,ESE,110,0.0,0.0,69,0.04,,---,0.04,VWS V14.01,2013-05-26 09:18:00,
2013-05-26 05:19:00,45.3,33.1,29.21,NNW,334,0.0,0.0,62,0.00,,---,0.00,VWS V14.01,2013-05-26 09:19:00,
2013-05-26 05:20:00,55.2,45.2,29.12,ESE,110,0.0,0.0,69,0.04,,---,0.04,VWS V14.01,2013-05-26 09:20:00,
2013-05-26 05:21:00,55.2,45.2,29.12,ESE,110,0.0,0.0,69,0.04,,---,0.04,VWS V14.01,2013-05-26 09:21:00,
2013-05-26 05:22:00,55.0,45.1,29.12,ESE,110,0.0,0.0,69,0.04,,---,0.04,VWS V14.01,2013-05-26 09:22:00,
2013-05-26 05:23:00,55.0,45.1,29.12,ESE,110,0.0,0.0,69,0.04,,---,0.04,VWS V14.01,2013-05-26 09:23:00,
2013-05-26 05:24:00,45.3,33.1,29.21,NNW,334,0.0,0.0,62,0.00,,---,0.00,VWS V14.01,2013-05-26 09:24:00,
2013-05-26 05:28:00,54.7,46.2,29.12,East,95,3.6,4.9,73,0.04,,---,0.04,VWS V14.01,2013-05-26 09:28:00,
2013-05-26 05:29:00,45.3,33.5,29.21,NNW,334,0.0,0.0,63,0.00,,---,0.00,VWS V14.01,2013-05-26 09:29:00,
2013-05-26 05:30:00,54.5,46.8,29.12,East,101,3.1,5.4,75,0.04,,---,0.04,VWS V14.01,2013-05-26 09:30:00,
2013-05-26 05:31:00,54.5,47.1,29.12,East,101,5.4,5.4,76,0.04,,---,0.04,VWS V14.01,2013-05-26 09:31:00,
2013-05-26 05:32:00,54.5,47.5,29.12,ESE,113,6.3,6.3,77,0.08,,---,0.08,VWS V14.01,2013-05-26 09:32:00,
2013-05-26 05:34:00,45.3,33.9,29.21,NNW,334,0.0,0.0,64,0.00,,---,0.00,VWS V14.01,2013-05-26 09:34:00,
2013-05-26 05:35:00,54.3,48.3,29.12,East,86,3.1,5.8,80,0.08,,---,0.08,VWS V14.01,2013-05-26 09:35:00,
2013-05-26 05:36:00,54.1,48.5,29.12,East,96,4.5,6.3,81,0.08,,---,0.08,VWS V14.01,2013-05-26 09:36:00,
2013-05-26 05:37:00,54.1,48.5,29.12,East,85,3.6,4.9,81,0.08,,---,0.08,VWS V14.01,2013-05-26 09:37:00,
2013-05-26 05:38:00,54.1,48.8,29.12,ESE,108,4.9,4.9,82,0.08,,---,0.08,VWS V14.01,2013-05-26 09:38:00,
2013-05-26 05:39:00,45.5,34.0,29.21,NNW,334,0.0,0.0,64,0.00,,---,0.00,VWS V14.01,2013-05-26 09:39:00,
2013-05-26 05:41:00,54.0,48.9,29.12,East,100,4.5,5.8,83,0.08,,---,0.08,VWS V14.01,2013-05-26 09:41:00,
2013-05-26 05:42:00,54.0,48.9,29.12,SE,125,5.8,6.3,83,0.08,,---,0.08,VWS V14.01,2013-05-26 09:42:00,
2013-05-26 05:43:00,53.8,48.8,29.12,ESE,116,5.4,6.7,83,0.08,,---,0.08,VWS V14.01,2013-05-26 09:43:00,
2013-05-26 05:44:00,45.5,34.4,29.21,NNW,334,0.0,0.0,65,0.00,,---,0.00,VWS V14.01,2013-05-26 09:44:00,
2013-05-26 05:45:00,53.6,48.6,29.12,ESE,105,4.9,5.4,83,0.08,,---,0.08,VWS V14.01,2013-05-26 09:45:00,
2013-05-26 05:46:00,53.6,48.9,29.12,ESE,108,5.4,5.4,84,0.08,,---,0.08,VWS V14.01,2013-05-26 09:46:00,
2013-05-26 05:48:00,53.6,48.9,29.12,ESE,108,3.6,4.5,84,0.08,,---,0.08,VWS V14.01,2013-05-26 09:48:00,
2013-05-26 05:49:00,45.9,35.2,29.21,NNW,334,0.0,0.0,66,0.00,,---,0.00,VWS V14.01,2013-05-26 09:49:00,
2013-05-26 05:51:00,53.6,48.9,29.12,East,99,3.6,5.4,84,0.08,,---,0.08,VWS V14.01,2013-05-26 09:51:00,
2013-05-26 05:52:00,53.6,48.9,29.12,ESE,107,5.8,5.8,84,0.08,,---,0.08,VWS V14.01,2013-05-26 09:52:00,
2013-05-26 05:54:00,46.2,35.9,29.21,NNW,334,0.0,0.0,67,0.00,,---,0.00,VWS V14.01,2013-05-26 09:54:00,
2013-05-26 05:55:00,53.4,48.7,29.12,ESE,117,5.4,7.8,84,0.08,,---,0.08,VWS V14.01,2013-05-26 09:55:00,
2013-05-26 05:56:00,53.4,48.7,29.12,ESE,105,5.8,6.3,84,0.08,,---,0.08,VWS V14.01,2013-05-26 09:56:00,
2013-05-26 05:57:00,53.4,48.7,29.12,ESE,120,6.7,6.7,84,0.08,,---,0.08,VWS V14.01,2013-05-26 09:57:00,
2013-05-26 05:59:00,46.6,37.0,29.21,NNW,334,0.0,0.0,69,0.00,,---,0.00,VWS V14.01,2013-05-26 09:59:00,
2013-05-26 06:00:00,53.2,48.5,29.12,East,89,4.9,6.3,84,0.08,,---,0.08,VWS V14.01,2013-05-26 10:00:00,
2013-05-26 06:01:00,53.2,48.2,29.12,East,88,7.4,7.8,83,0.08,,---,0.08,VWS V14.01,2013-05-26 10:01:00,
2013-05-26 06:02:00,53.1,48.0,29.12,East,91,4.0,7.8,83,0.08,,---,0.08,VWS V14.01,2013-05-26 10:02:00,
2013-05-26 06:04:00,46.8,37.1,29.21,NNW,334,0.0,0.0,69,0.00,,---,0.00,VWS V14.01,2013-05-26 10:04:00,
2013-05-26 06:05:00,52.7,47.4,29.12,ESE,106,5.4,5.4,82,0.08,,---,0.08,VWS V14.01,2013-05-26 10:05:00,
2013-05-26 06:08:00,52.5,47.2,29.12,ESE,104,6.3,6.3,82,0.04,,---,0.08,VWS V14.01,2013-05-26 10:08:00,
2013-05-26 06:09:00,46.9,37.7,29.21,NNW,334,0.0,0.0,70,0.00,,---,0.00,VWS V14.01,2013-05-26 10:09:00,
2013-05-26 06:10:00,52.5,47.2,29.12,East,101,6.7,6.7,82,0.04,,---,0.08,VWS V14.01,2013-05-26 10:10:00,
2013-05-26 06:11:00,52.5,47.2,29.12,ESE,106,7.4,7.4,82,0.04,,---,0.08,VWS V14.01,2013-05-26 10:11:00,
2013-05-26 06:12:00,52.3,47.3,29.12,East,95,6.7,7.8,83,0.04,,---,0.08,VWS V14.01,2013-05-26 10:12:00,
2013-05-26 06:13:00,52.3,47.3,29.12,SE,127,5.4,6.7,83,0.04,,---,0.08,VWS V14.01,2013-05-26 10:13:00,
2013-05-26 06:14:00,47.1,37.8,29.21,NNW,334,0.0,0.0,70,0.00,,---,0.00,VWS V14.01,2013-05-26 10:14:00,
2013-05-26 06:15:00,52.3,47.3,29.12,ESE,107,4.9,5.8,83,0.04,,---,0.08,VWS V14.01,2013-05-26 10:15:00,
2013-05-26 06:16:00,52.3,47.3,29.12,East,97,5.8,6.9,83,0.04,,---,0.08,VWS V14.01,2013-05-26 10:16:00,
2013-05-26 06:17:00,52.3,47.7,29.12,ESE,116,5.8,5.8,84,0.04,,---,0.08,VWS V14.01,2013-05-26 10:17:00,
2013-05-26 06:18:00,52.3,47.7,29.12,ESE,104,4.5,6.3,84,0.04,,---,0.08,VWS V14.01,2013-05-26 10:18:00,
2013-05-26 06:19:00,47.3,38.0,29.21,NNW,334,0.0,0.0,70,0.00,,---,0.00,VWS V14.01,2013-05-26 10:19:00,
2013-05-26 06:20:00,52.3,47.7,29.12,East,97,4.5,4.9,84,0.04,,---,0.08,VWS V14.01,2013-05-26 10:20:00,
2013-05-26 06:21:00,52.5,47.8,29.12,ESE,105,6.3,6.3,84,0.04,,---,0.08,VWS V14.01,2013-05-26 10:21:00,
2013-05-26 06:22:00,52.5,48.2,29.12,ESE,118,5.8,6.3,85,0.04,,---,0.08,VWS V14.01,2013-05-26 10:22:00,
2013-05-26 06:23:00,52.5,48.2,29.12,East,90,3.6,6.3,85,0.04,,---,0.08,VWS V14.01,2013-05-26 10:23:00,
2013-05-26 06:24:00,47.3,38.0,29.21,NNW,334,0.0,0.0,70,0.00,,---,0.00,VWS V14.01,2013-05-26 10:24:00,
2013-05-26 06:26:00,52.5,48.2,29.12,ESE,115,5.8,5.8,85,0.04,,---,0.08,VWS V14.01,2013-05-26 10:26:00,
2013-05-26 06:27:00,52.5,48.2,29.12,SSE,152,3.6,7.8,85,0.08,,---,0.12,VWS V14.01,2013-05-26 10:27:00,
2013-05-26 06:29:00,47.1,37.5,29.21,East,90,2.7,3.6,69,0.00,,---,0.00,VWS V14.01,2013-05-26 10:29:00,
2013-05-26 06:30:00,52.5,48.5,29.12,SE,124,5.4,6.7,86,0.08,,---,0.12,VWS V14.01,2013-05-26 10:30:00,
2013-05-26 06:33:00,52.5,48.5,29.12,East,88,5.8,7.4,86,0.04,,---,0.12,VWS V14.01,2013-05-26 10:33:00,
2013-05-26 06:34:00,47.1,37.5,29.21,East,90,0.0,0.0,69,0.00,,---,0.00,VWS V14.01,2013-05-26 10:34:00,
2013-05-26 06:37:00,52.3,48.3,29.12,East,96,5.8,7.4,86,0.04,,---,0.12,VWS V14.01,2013-05-26 10:37:00,
2013-05-26 06:38:00,52.3,48.3,29.12,ESE,103,4.9,6.7,86,0.04,,---,0.12,VWS V14.01,2013-05-26 10:38:00,
2013-05-26 06:39:00,47.1,37.5,29.21,East,90,2.7,3.6,69,0.00,,---,0.00,VWS V14.01,2013-05-26 10:39:00,
2013-05-26 06:40:00,52.3,48.3,29.12,East,83,5.8,5.8,86,0.04,,---,0.12,VWS V14.01,2013-05-26 10:40:00,
2013-05-26 06:41:00,52.3,48.3,29.12,ESE,104,2.7,5.8,86,0.04,,---,0.12,VWS V14.01,2013-05-26 10:41:00,
2013-05-26 06:44:00,47.3,37.7,29.21,East,90,3.6,3.6,69,0.00,,---,0.00,VWS V14.01,2013-05-26 10:44:00,
2013-05-26 06:45:00,52.3,48.6,29.12,ESE,121,4.5,4.5,87,0.04,,---,0.12,VWS V14.01,2013-05-26 10:45:00,
2013-05-26 06:46:00,52.3,48.6,29.12,ESE,120,3.6,5.8,87,0.04,,---,0.12,VWS V14.01,2013-05-26 10:46:00,
2013-05-26 06:47:00,52.3,48.6,29.12,ESE,114,4.5,5.4,87,0.04,,---,0.12,VWS V14.01,2013-05-26 10:47:00,
2013-05-26 06:49:00,47.5,37.8,29.21,East,90,2.7,4.0,69,0.00,,---,0.00,VWS V14.01,2013-05-26 10:49:00,
2013-05-26 06:54:00,47.7,37.6,29.21,East,101,3.6,3.6,68,0.00,,---,0.00,VWS V14.01,2013-05-26 10:54:00,
2013-05-26 06:59:00,47.8,37.4,29.21,ESE,103,0.0,0.0,67,0.00,,---,0.00,VWS V14.01,2013-05-26 10:59:00,
2013-05-26 07:01:00,52.2,49.3,29.12,ESE,108,6.9,6.9,90,0.08,,---,0.16,VWS V14.01,2013-05-26 11:01:00,
2013-05-26 07:02:00,52.2,49.3,29.12,ESE,103,4.9,6.9,90,0.08,,---,0.16,VWS V14.01,2013-05-26 11:02:00,
2013-05-26 07:03:00,52.2,49.3,29.12,ESE,107,2.7,5.4,90,0.08,,---,0.16,VWS V14.01,2013-05-26 11:03:00,
2013-05-26 07:04:00,48.0,37.2,29.21,ESE,103,0.0,2.7,66,0.00,,---,0.00,VWS V14.01,2013-05-26 11:04:00,
2013-05-26 07:09:00,48.4,37.2,29.21,ENE,74,2.7,4.5,65,0.00,,---,0.00,VWS V14.01,2013-05-26 11:09:00,
2013-05-26 07:10:00,52.2,49.9,29.12,SE,144,5.8,6.7,92,0.16,,---,0.24,VWS V14.01,2013-05-26 11:10:00,
2013-05-26 07:12:00,52.2,49.9,29.12,East,96,5.8,6.3,92,0.16,,---,0.24,VWS V14.01,2013-05-26 11:12:00,
2013-05-26 07:14:00,48.7,36.7,29.21,ESE,115,4.0,4.9,63,0.00,,---,0.00,VWS V14.01,2013-05-26 11:14:00,
2013-05-26 07:19:00,49.1,35.8,29.21,ENE,74,4.9,4.9,60,0.00,,---,0.00,VWS V14.01,2013-05-26 11:19:00,
2013-05-26 07:22:00,52.2,50.5,29.12,ESE,116,8.7,10.1,94,0.24,,---,0.31,VWS V14.01,2013-05-26 11:22:00,
2013-05-26 07:24:00,49.5,35.3,29.21,ESE,108,3.6,4.5,58,0.00,,---,0.00,VWS V14.01,2013-05-26 11:24:00,
2013-05-26 07:29:00,50.0,35.8,29.21,East,99,4.5,6.3,58,0.00,,---,0.00,VWS V14.01,2013-05-26 11:29:00,
2013-05-26 07:34:00,50.5,35.4,29.21,ESE,107,3.6,5.4,56,0.00,,---,0.00,VWS V14.01,2013-05-26 11:34:00,
2013-05-26 07:39:00,51.4,35.8,29.21,ESE,105,4.5,6.7,55,0.00,,---,0.00,VWS V14.01,2013-05-26 11:39:00,
2013-05-26 07:41:00,52.2,50.8,29.12,ESE,103,6.7,11.0,95,0.24,,---,0.35,VWS V14.01,2013-05-26 11:41:00,
2013-05-26 07:44:00,52.2,35.1,29.21,ENE,70,4.5,7.4,52,0.00,,---,0.00,VWS V14.01,2013-05-26 11:44:00,
2013-05-26 07:46:00,52.2,51.1,29.12,ESE,110,6.3,6.9,96,0.24,,---,0.35,VWS V14.01,2013-05-26 11:46:00,
2013-05-26 07:49:00,52.7,34.6,29.21,ENE,73,5.8,5.8,50,0.00,,---,0.00,VWS V14.01,2013-05-26 11:49:00,
2013-05-26 07:54:00,52.2,51.3,29.12,ESE,102,8.7,10.1,97,0.20,,---,0.35,VWS V14.01,2013-05-26 11:54:00,
2013-05-26 07:55:00,53.4,34.8,29.21,East,90,4.9,5.8,49,0.00,,---,0.00,VWS V14.01,2013-05-26 11:55:00,
2013-05-26 08:00:00,57.4,36.2,29.23,ESE,123,5.8,7.4,45,0.00,,---,0.00,VWS V14.01,2013-05-26 12:00:00,
2013-05-26 08:04:00,52.2,51.3,29.12,ESE,107,6.9,7.8,97,0.20,,---,0.35,VWS V14.01,2013-05-26 12:04:00,
2013-05-26 08:05:00,61.9,33.2,29.23,East,96,6.9,8.3,34,0.00,,---,0.00,VWS V14.01,2013-05-26 12:05:00,
2013-05-26 08:06:00,52.2,51.3,29.12,ESE,112,9.6,11.0,97,0.16,,---,0.35,VWS V14.01,2013-05-26 12:06:00,
2013-05-26 08:10:00,64.8,30.0,29.23,East,93,6.3,7.4,27,0.00,,---,0.00,VWS V14.01,2013-05-26 12:10:00,
2013-05-26 08:15:00,66.2,28.4,29.21,ESE,109,6.7,8.3,24,0.00,,---,0.00,VWS V14.01,2013-05-26 12:15:00,
2013-05-26 08:20:00,67.3,28.2,29.21,East,82,5.8,7.4,23,0.00,,---,0.00,VWS V14.01,2013-05-26 12:20:00,
2013-05-26 08:25:00,68.4,28.1,29.21,East,101,5.4,8.7,22,0.00,,---,0.00,VWS V14.01,2013-05-26 12:25:00,
2013-05-26 08:30:00,69.4,25.4,29.21,East,87,7.4,9.2,19,0.00,,---,0.00,VWS V14.01,2013-05-26 12:30:00,
2013-05-26 08:35:00,71.1,26.8,29.21,SE,140,5.4,5.4,19,0.00,,---,0.00,VWS V14.01,2013-05-26 12:35:00,
2013-05-26 08:40:00,69.8,23.1,29.21,SE,126,4.0,6.7,17,0.00,,---,0.00,VWS V14.01,2013-05-26 12:40:00,
2013-05-26 08:45:00,68.5,22.0,29.23,ESE,113,4.0,4.9,17,0.00,,---,0.00,VWS V14.01,2013-05-26 12:45:00,
2013-05-26 08:50:00,67.3,21.0,29.23,ESE,122,6.9,7.4,17,0.00,,---,0.00,VWS V14.01,2013-05-26 12:50:00,
2013-05-26 08:55:00,64.0,22.2,29.23,SE,131,6.9,6.9,20,0.00,,---,0.00,VWS V14.01,2013-05-26 12:55:00,
2013-05-26 09:00:00,62.2,24.0,29.23,East,91,6.3,6.9,23,0.00,,---,0.00,VWS V14.01,2013-05-26 13:00:00,
2013-05-26 09:05:00,62.1,24.9,29.23,SSE,152,4.0,5.4,24,0.00,,---,0.00,VWS V14.01,2013-05-26 13:05:00,
2013-05-26 09:10:00,62.1,24.9,29.23,SE,145,3.1,4.0,24,0.00,,---,0.00,VWS V14.01,2013-05-26 13:10:00,
2013-05-26 09:15:00,62.1,23.9,29.23,SE,143,8.7,9.2,23,0.00,,---,0.00,VWS V14.01,2013-05-26 13:15:00,
2013-05-26 09:20:00,61.7,24.6,29.23,SSE,157,4.5,6.9,24,0.00,,---,0.00,VWS V14.01,2013-05-26 13:20:00,
2013-05-26 09:25:00,62.4,22.0,29.23,ESE,121,6.7,8.3,21,0.00,,---,0.00,VWS V14.01,2013-05-26 13:25:00,
2013-05-26 09:30:00,62.6,22.1,29.23,South,169,4.9,6.3,21,0.00,,---,0.00,VWS V14.01,2013-05-26 13:30:00,
2013-05-26 09:35:00,63.0,22.5,29.23,SE,130,4.5,9.6,21,0.00,,---,0.00,VWS V14.01,2013-05-26 13:35:00,
2013-05-26 09:40:00,64.0,22.2,29.23,SE,131,5.8,8.7,20,0.00,,---,0.00,VWS V14.01,2013-05-26 13:40:00,
2013-05-26 09:45:00,63.5,19.3,29.23,East,98,4.5,7.4,18,0.00,,---,0.00,VWS V14.01,2013-05-26 13:45:00,
2013-05-26 09:50:00,63.9,19.6,29.23,ESE,114,8.3,8.7,18,0.00,,---,0.00,VWS V14.01,2013-05-26 13:50:00,
2013-05-26 09:55:00,63.9,19.6,29.23,SE,131,4.9,5.8,18,0.00,,---,0.00,VWS V14.01,2013-05-26 13:55:00,
2013-05-26 10:00:00,65.3,19.4,29.23,ESE,105,4.9,5.8,17,0.00,,---,0.00,VWS V14.01,2013-05-26 14:00:00,
2013-05-26 10:05:00,66.0,20.0,29.23,SE,129,5.4,6.7,17,0.00,,---,0.00,VWS V14.01,2013-05-26 14:05:00,
2013-05-26 10:10:00,66.2,20.1,29.23,East,98,6.3,9.6,17,0.00,,---,0.00,VWS V14.01,2013-05-26 14:10:00,
2013-05-26 10:13:00,59.7,47.1,29.06,ESE,117,7.4,14.8,63,0.00,,---,0.35,VWS V14.01,2013-05-26 14:13:00,
2013-05-26 10:14:00,60.1,47.0,29.06,SE,145,6.3,8.7,62,0.00,,---,0.35,VWS V14.01,2013-05-26 14:14:00,
2013-05-26 10:16:00,66.6,20.4,29.23,SE,144,4.9,5.4,17,0.00,,---,0.00,VWS V14.01,2013-05-26 14:16:00,
2013-05-26 10:21:00,66.9,20.7,29.23,ESE,113,4.9,5.8,17,0.00,,---,0.00,VWS V14.01,2013-05-26 14:21:00,
2013-05-26 10:26:00,67.3,21.0,29.23,South,180,4.0,7.4,17,0.00,,---,0.00,VWS V14.01,2013-05-26 14:26:00,
2013-05-26 10:31:00,67.3,21.0,29.23,East,89,8.7,8.7,17,0.00,,---,0.00,VWS V14.01,2013-05-26 14:31:00,
2013-05-26 10:33:00,58.5,45.9,29.06,SE,144,7.8,9.6,63,0.00,,---,0.35,VWS V14.01,2013-05-26 14:33:00,
2013-05-26 10:37:00,67.3,21.0,29.23,ESE,106,5.4,7.4,17,0.00,,---,0.00,VWS V14.01,2013-05-26 14:37:00,
2013-05-26 10:43:00,68.4,21.9,29.23,East,95,5.8,8.3,17,0.00,,---,0.00,VWS V14.01,2013-05-26 14:43:00,
2013-05-26 10:49:00,68.0,21.6,29.23,ESE,110,4.5,5.4,17,0.00,,---,0.00,VWS V14.01,2013-05-26 14:49:00,
2013-05-26 10:50:00,58.6,46.1,29.06,ESE,113,7.8,13.9,63,0.00,,---,0.35,VWS V14.01,2013-05-26 14:50:00,
2013-05-26 10:54:00,68.4,21.9,29.23,South,186,4.5,6.3,17,0.00,,---,0.00,VWS V14.01,2013-05-26 14:54:00,
2013-05-26 10:56:00,58.5,46.8,29.06,SE,124,5.8,8.7,65,0.00,,---,0.35,VWS V14.01,2013-05-26 14:56:00,
2013-05-26 10:59:00,58.6,46.9,29.03,SSE,150,6.9,7.8,65,0.00,,---,0.35,VWS V14.01,2013-05-26 14:59:00,
2013-05-26 11:00:00,68.9,22.3,29.23,East,89,7.8,10.1,17,0.00,,---,0.00,VWS V14.01,2013-05-26 15:00:00,
2013-05-26 11:05:00,68.5,22.0,29.23,ESE,117,6.9,6.9,17,0.00,,---,0.00,VWS V14.01,2013-05-26 15:05:00,
2013-05-26 11:07:00,58.8,47.1,29.03,SE,138,5.4,7.4,65,0.00,,---,0.35,VWS V14.01,2013-05-26 15:07:00,
2013-05-26 11:10:00,68.4,21.9,29.23,SE,143,4.5,8.7,17,0.00,,---,0.00,VWS V14.01,2013-05-26 15:10:00,
2013-05-26 11:12:00,59.2,47.4,29.03,SSE,159,5.4,11.6,65,0.00,,---,0.35,VWS V14.01,2013-05-26 15:12:00,
2013-05-26 11:16:00,70.5,23.6,29.23,East,101,6.9,9.2,17,0.00,,---,0.00,VWS V14.01,2013-05-26 15:16:00,
2013-05-26 11:20:00,59.4,47.6,29.03,SE,136,4.0,9.2,65,0.00,,---,0.35,VWS V14.01,2013-05-26 15:20:00,
2013-05-26 11:22:00,59.4,47.6,29.03,SE,128,11.0,11.2,65,0.00,,---,0.35,VWS V14.01,2013-05-26 15:22:00,
2013-05-26 11:23:00,59.4,47.2,29.03,South,169,6.7,11.0,64,0.00,,---,0.35,VWS V14.01,2013-05-26 15:23:00,
2013-05-26 11:24:00,71.2,22.8,29.23,SE,133,5.8,7.4,16,0.00,,---,0.00,VWS V14.01,2013-05-26 15:24:00,
2013-05-26 11:29:00,72.9,24.1,29.23,ESE,103,6.7,6.7,16,0.00,,---,0.00,VWS V14.01,2013-05-26 15:29:00,
2013-05-26 11:34:00,72.9,24.1,29.23,SE,142,6.3,7.4,16,0.00,,---,0.00,VWS V14.01,2013-05-26 15:34:00,
2013-05-26 11:36:00,59.7,47.1,29.03,SSE,153,5.8,10.5,63,0.00,,---,0.35,VWS V14.01,2013-05-26 15:36:00,
2013-05-26 11:37:00,59.7,47.1,29.03,SSE,155,7.4,11.0,63,0.00,,---,0.35,VWS V14.01,2013-05-26 15:37:00,
2013-05-26 11:39:00,59.7,47.1,29.03,South,169,3.1,8.3,63,0.00,,---,0.35,VWS V14.01,2013-05-26 15:39:00,
2013-05-26 11:42:00,72.5,23.8,29.23,ESE,123,6.7,6.7,16,0.00,,---,0.00,VWS V14.01,2013-05-26 15:42:00,
2013-05-26 11:43:00,59.7,47.5,29.03,SE,127,6.7,6.9,64,0.00,,---,0.35,VWS V14.01,2013-05-26 15:43:00,
2013-05-26 11:48:00,72.0,23.4,29.23,SE,142,0.0,2.7,16,0.00,,---,0.00,VWS V14.01,2013-05-26 15:48:00,
2013-05-26 11:49:00,60.1,47.5,29.03,East,101,6.3,6.7,63,0.00,,---,0.35,VWS V14.01,2013-05-26 15:49:00,
2013-05-26 11:51:00,60.1,47.5,29.03,ESE,112,8.7,10.1,63,0.00,,---,0.35,VWS V14.01,2013-05-26 15:51:00,
2013-05-26 11:53:00,70.9,22.5,29.23,East,100,2.7,6.3,16,0.00,,---,0.00,VWS V14.01,2013-05-26 15:53:00,
2013-05-26 11:55:00,60.4,47.8,29.03,SE,130,5.4,7.4,63,0.00,,---,0.35,VWS V14.01,2013-05-26 15:55:00,
2013-05-26 11:58:00,60.6,47.5,29.03,ESE,117,5.4,11.0,62,0.00,,---,0.35,VWS V14.01,2013-05-26 15:58:00,
2013-05-26 11:59:00,71.8,23.2,29.23,ESE,109,3.1,5.8,16,0.00,,---,0.00,VWS V14.01,2013-05-26 15:59:00,
2013-05-26 12:04:00,72.9,24.1,29.23,SE,129,4.0,6.9,16,0.00,,---,0.00,VWS V14.01,2013-05-26 16:04:00,
2013-05-26 12:09:00,73.6,24.7,29.23,SW,222,3.1,4.9,16,0.00,,---,0.00,VWS V14.01,2013-05-26 16:09:00,
2013-05-26 12:14:00,74.1,25.1,29.23,ESE,114,3.1,4.0,16,0.00,,---,0.00,VWS V14.01,2013-05-26 16:14:00,
2013-05-26 12:19:00,74.5,23.8,29.23,SE,137,0.0,3.6,15,0.00,,---,0.00,VWS V14.01,2013-05-26 16:19:00,
2013-05-26 12:24:00,74.7,24.0,29.23,ESE,111,3.1,4.5,15,0.00,,---,0.00,VWS V14.01,2013-05-26 16:24:00,
2013-05-26 12:29:00,75.0,24.3,29.23,ENE,78,0.0,5.4,15,0.00,,---,0.00,VWS V14.01,2013-05-26 16:29:00,
2013-05-26 12:34:00,75.4,24.6,29.23,West,267,0.0,5.4,15,0.00,,---,0.00,VWS V14.01,2013-05-26 16:34:00,
2013-05-26 12:39:00,76.5,25.4,29.23,WSW,238,4.5,5.4,15,0.00,,---,0.00,VWS V14.01,2013-05-26 16:39:00,
2013-05-26 12:44:00,76.6,25.6,29.23,SSE,147,0.0,4.5,15,0.00,,---,0.00,VWS V14.01,2013-05-26 16:44:00,
2013-05-26 12:49:00,76.1,25.1,29.23,SE,128,3.1,3.6,15,0.00,,---,0.00,VWS V14.01,2013-05-26 16:49:00,
2013-05-26 12:54:00,76.5,25.4,29.23,SE,138,4.0,5.4,15,0.00,,---,0.00,VWS V14.01,2013-05-26 16:54:00,
2013-05-26 12:59:00,76.8,25.7,29.23,ESE,120,2.7,2.7,15,0.00,,---,0.00,VWS V14.01,2013-05-26 16:59:00,
2013-05-26 13:04:00,77.9,26.6,29.23,SSE,150,6.7,10.1,15,0.00,,---,0.00,VWS V14.01,2013-05-26 17:04:00,
2013-05-26 13:09:00,78.8,27.3,29.23,SW,220,0.0,4.0,15,0.00,,---,0.00,VWS V14.01,2013-05-26 17:09:00,
2013-05-26 13:14:00,79.0,27.4,29.21,WNW,282,3.6,4.5,15,0.00,,---,0.00,VWS V14.01,2013-05-26 17:14:00,
2013-05-26 13:19:00,77.9,26.6,29.21,South,174,0.0,4.9,15,0.00,,---,0.00,VWS V14.01,2013-05-26 17:19:00,
2013-05-26 13:24:00,76.5,25.4,29.21,ENE,77,0.0,0.0,15,0.00,,---,0.00,VWS V14.01,2013-05-26 17:24:00,
2013-05-26 13:29:00,75.6,24.7,29.21,SE,139,0.0,4.5,15,0.00,,---,0.00,VWS V14.01,2013-05-26 17:29:00,
2013-05-26 13:34:00,75.0,24.3,29.21,WSW,238,0.0,3.6,15,0.00,,---,0.00,VWS V14.01,2013-05-26 17:34:00,
2013-05-26 13:39:00,75.0,24.3,29.21,ESE,110,0.0,2.7,15,0.00,,---,0.00,VWS V14.01,2013-05-26 17:39:00,
2013-05-26 13:44:00,74.5,23.8,29.21,East,80,2.7,5.4,15,0.00,,---,0.00,VWS V14.01,2013-05-26 17:44:00,
2013-05-26 13:49:00,74.3,25.2,29.21,ESE,112,0.0,3.6,16,0.00,,---,0.00,VWS V14.01,2013-05-26 17:49:00,
2013-05-26 13:54:00,74.5,23.8,29.21,WSW,242,4.0,4.0,15,0.00,,---,0.00,VWS V14.01,2013-05-26 17:54:00,
2013-05-26 13:59:00,75.4,24.6,29.21,SE,140,6.7,6.7,15,0.00,,---,0.00,VWS V14.01,2013-05-26 17:59:00,
2013-05-26 14:04:00,75.4,24.6,29.21,SE,140,3.6,5.8,15,0.00,,---,0.00,VWS V14.01,2013-05-26 18:04:00,
2013-05-26 14:09:00,75.4,24.6,29.21,SE,141,4.0,4.0,15,0.00,,---,0.00,VWS V14.01,2013-05-26 18:09:00,
2013-05-26 14:14:00,74.8,24.1,29.21,SE,142,6.3,8.7,15,0.00,,---,0.00,VWS V14.01,2013-05-26 18:14:00,
2013-05-26 14:19:00,72.9,19.2,29.21,SE,133,0.0,5.4,13,0.00,,---,0.00,VWS V14.01,2013-05-26 18:19:00,
2013-05-26 14:24:00,73.6,19.8,29.21,WSW,258,0.0,0.0,13,0.00,,---,0.00,VWS V14.01,2013-05-26 18:24:00,
2013-05-26 14:29:00,73.6,19.8,29.21,ESE,106,0.0,3.6,13,0.00,,---,0.00,VWS V14.01,2013-05-26 18:29:00,
2013-05-26 14:34:00,73.2,19.5,29.21,SE,124,4.5,5.8,13,0.00,,---,0.00,VWS V14.01,2013-05-26 18:34:00,
2013-05-26 14:39:00,74.7,24.0,29.21,WSW,245,3.1,4.0,15,0.00,,---,0.00,VWS V14.01,2013-05-26 18:39:00,
2013-05-26 14:44:00,75.6,24.7,29.21,SE,140,4.5,4.5,15,0.00,,---,0.00,VWS V14.01,2013-05-26 18:44:00,
2013-05-26 14:49:00,73.9,20.0,29.21,ESE,107,6.3,6.9,13,0.00,,---,0.00,VWS V14.01,2013-05-26 18:49:00,
2013-05-26 14:54:00,73.8,19.9,29.21,ESE,120,0.0,2.7,13,0.00,,---,0.00,VWS V14.01,2013-05-26 18:54:00,
2013-05-26 14:59:00,74.8,20.7,29.21,ESE,108,2.7,6.3,13,0.00,,---,0.00,VWS V14.01,2013-05-26 18:59:00,
2013-05-26 15:04:00,74.7,20.6,29.21,ESE,116,4.9,7.4,13,0.00,,---,0.00,VWS V14.01,2013-05-26 19:04:00,
2013-05-26 15:09:00,74.1,20.2,29.21,SSW,212,0.0,4.0,13,0.00,,---,0.00,VWS V14.01,2013-05-26 19:09:00,
2013-05-26 15:14:00,74.5,20.5,29.21,East,99,3.6,3.6,13,0.00,,---,0.00,VWS V14.01,2013-05-26 19:14:00,
2013-05-26 15:19:00,74.5,23.8,29.21,ESE,111,0.0,3.6,15,0.00,,---,0.00,VWS V14.01,2013-05-26 19:19:00,
2013-05-26 15:24:00,75.2,21.0,29.21,WSW,255,0.0,4.0,13,0.00,,---,0.00,VWS V14.01,2013-05-26 19:24:00,
2013-05-26 15:29:00,75.4,24.6,29.18,SE,128,0.0,4.5,15,0.00,,---,0.00,VWS V14.01,2013-05-26 19:29:00,
2013-05-26 15:34:00,76.3,25.3,29.18,South,173,0.0,4.0,15,0.00,,---,0.00,VWS V14.01,2013-05-26 19:34:00,
2013-05-26 15:39:00,76.3,25.3,29.18,ESE,116,3.6,5.8,15,0.00,,---,0.00,VWS V14.01,2013-05-26 19:39:00,
2013-05-26 15:45:00,76.6,25.6,29.18,South,185,5.4,5.4,15,0.00,,---,0.00,VWS V14.01,2013-05-26 19:45:00,
2013-05-26 15:50:00,75.6,24.7,29.18,SSE,147,4.0,5.4,15,0.00,,---,0.00,VWS V14.01,2013-05-26 19:50:00,
2013-05-26 15:55:00,75.7,24.9,29.18,ESE,120,4.0,4.9,15,0.00,,---,0.00,VWS V14.01,2013-05-26 19:55:00,
2013-05-26 16:00:00,76.6,25.6,29.18,South,178,0.0,0.0,15,0.00,,---,0.00,VWS V14.01,2013-05-26 20:00:00,
2013-05-26 16:05:00,78.1,26.7,29.18,SSE,152,4.0,8.3,15,0.00,,---,0.00,VWS V14.01,2013-05-26 20:05:00,
2013-05-26 16:10:00,76.6,25.6,29.18,ESE,105,2.7,6.3,15,0.00,,---,0.00,VWS V14.01,2013-05-26 20:10:00,
2013-05-26 16:15:00,77.0,25.9,29.18,SE,125,0.0,0.0,15,0.00,,---,0.00,VWS V14.01,2013-05-26 20:15:00,
2013-05-26 16:20:00,76.1,25.1,29.18,ESE,107,6.3,6.7,15,0.00,,---,0.00,VWS V14.01,2013-05-26 20:20:00,
2013-05-26 16:25:00,75.2,24.4,29.18,East,99,3.1,4.9,15,0.00,,---,0.00,VWS V14.01,2013-05-26 20:25:00,
2013-05-26 16:30:00,76.6,25.6,29.18,SSE,151,4.9,4.9,15,0.00,,---,0.00,VWS V14.01,2013-05-26 20:30:00,
2013-05-26 16:35:00,76.5,25.4,29.18,SSW,207,0.0,6.3,15,0.00,,---,0.00,VWS V14.01,2013-05-26 20:35:00,
2013-05-26 16:40:00,75.6,24.7,29.18,SE,145,0.0,4.5,15,0.00,,---,0.00,VWS V14.01,2013-05-26 20:40:00,
2013-05-26 16:45:00,75.7,24.9,29.18,ESE,109,6.9,7.4,15,0.00,,---,0.00,VWS V14.01,2013-05-26 20:45:00,
2013-05-26 16:50:00,75.0,24.3,29.18,SE,134,4.5,8.3,15,0.00,,---,0.00,VWS V14.01,2013-05-26 20:50:00,
2013-05-26 16:55:00,75.2,24.4,29.18,SE,128,3.6,4.9,15,0.00,,---,0.00,VWS V14.01,2013-05-26 20:55:00,
2013-05-26 17:00:00,75.2,24.4,29.18,SE,135,5.4,5.4,15,0.00,,---,0.00,VWS V14.01,2013-05-26 21:00:00,
2013-05-26 17:05:00,74.5,20.5,29.18,WNW,285,0.0,0.0,13,0.00,,---,0.00,VWS V14.01,2013-05-26 21:05:00,
2013-05-26 17:10:00,74.1,20.2,29.18,SSE,157,0.0,4.5,13,0.00,,---,0.00,VWS V14.01,2013-05-26 21:10:00,
2013-05-26 17:15:00,73.8,24.8,29.15,ESE,121,3.6,4.9,16,0.00,,---,0.00,VWS V14.01,2013-05-26 21:15:00,
2013-05-26 17:20:00,73.4,19.6,29.15,SE,145,7.4,7.4,13,0.00,,---,0.00,VWS V14.01,2013-05-26 21:20:00,
2013-05-26 17:25:00,72.9,19.2,29.15,SSE,148,0.0,2.7,13,0.00,,---,0.00,VWS V14.01,2013-05-26 21:25:00,
2013-05-26 17:30:00,73.2,19.5,29.15,SSW,207,0.0,0.0,13,0.00,,---,0.00,VWS V14.01,2013-05-26 21:30:00,
2013-05-26 17:35:00,73.0,19.3,29.15,SSE,152,5.4,5.8,13,0.00,,---,0.00,VWS V14.01,2013-05-26 21:35:00,
2013-05-26 17:40:00,72.9,24.1,29.15,SE,139,0.0,4.9,16,0.00,,---,0.00,VWS V14.01,2013-05-26 21:40:00,
2013-05-26 17:45:00,73.2,24.4,29.15,South,190,0.0,3.1,16,0.00,,---,0.00,VWS V14.01,2013-05-26 21:45:00,
2013-05-26 17:50:00,73.4,24.5,29.15,ESE,116,0.0,3.1,16,0.00,,---,0.00,VWS V14.01,2013-05-26 21:50:00,
2013-05-26 17:55:00,73.4,19.6,29.15,West,269,2.7,3.6,13,0.00,,---,0.00,VWS V14.01,2013-05-26 21:55:00,
2013-05-26 18:00:00,73.0,19.3,29.15,SE,131,3.6,3.6,13,0.00,,---,0.00,VWS V14.01,2013-05-26 22:00:00,
2013-05-26 18:05:00,71.8,20.1,29.15,WSW,237,2.7,4.5,14,0.00,,---,0.00,VWS V14.01,2013-05-26 22:05:00,
2013-05-26 18:10:00,72.1,20.4,29.15,SSE,165,0.0,3.1,14,0.00,,---,0.00,VWS V14.01,2013-05-26 22:10:00,
2013-05-26 18:15:00,72.0,20.2,29.15,SSE,156,0.0,0.0,14,0.00,,---,0.00,VWS V14.01,2013-05-26 22:15:00,
2013-05-26 18:20:00,71.8,20.1,29.15,WSW,238,0.0,0.0,14,0.00,,---,0.00,VWS V14.01,2013-05-26 22:20:00,
2013-05-26 18:25:00,71.4,19.8,29.15,SE,145,4.9,5.4,14,0.00,,---,0.00,VWS V14.01,2013-05-26 22:25:00,
2013-05-26 18:30:00,70.9,19.4,29.15,SE,135,0.0,3.1,14,0.00,,---,0.00,VWS V14.01,2013-05-26 22:30:00,
2013-05-26 18:35:00,70.5,19.1,29.15,SE,133,0.0,0.0,14,0.00,,---,0.00,VWS V14.01,2013-05-26 22:35:00,
2013-05-26 18:40:00,70.5,19.1,29.15,SSW,211,0.0,0.0,14,0.00,,---,0.00,VWS V14.01,2013-05-26 22:40:00,
2013-05-26 18:45:00,70.5,19.1,29.15,SE,138,0.0,6.7,14,0.00,,---,0.00,VWS V14.01,2013-05-26 22:45:00,
2013-05-26 18:50:00,70.2,18.8,29.15,ESE,116,0.0,2.7,14,0.00,,---,0.00,VWS V14.01,2013-05-26 22:50:00,
2013-05-26 18:55:00,70.0,18.6,29.15,SSE,147,3.6,6.3,14,0.00,,---,0.00,VWS V14.01,2013-05-26 22:55:00,
2013-05-26 19:00:00,69.8,18.5,29.15,East,99,5.4,5.8,14,0.00,,---,0.00,VWS V14.01,2013-05-26 23:00:00,
2013-05-26 19:05:00,69.4,22.8,29.15,SSE,150,0.0,4.5,17,0.00,,---,0.00,VWS V14.01,2013-05-26 23:05:00,
2013-05-26 19:10:00,69.4,22.8,29.15,SSW,193,0.0,0.0,17,0.00,,---,0.00,VWS V14.01,2013-05-26 23:10:00,
2013-05-26 19:15:00,69.4,22.8,29.15,SSW,193,0.0,0.0,17,0.00,,---,0.00,VWS V14.01,2013-05-26 23:15:00,
2013-05-26 19:20:00,69.3,22.6,29.15,SSE,147,0.0,0.0,17,0.00,,---,0.00,VWS V14.01,2013-05-26 23:20:00,
2013-05-26 19:25:00,69.3,22.6,29.15,SSE,147,0.0,0.0,17,0.00,,---,0.00,VWS V14.01,2013-05-26 23:25:00,
2013-05-26 19:30:00,69.1,22.5,29.12,SSW,195,0.0,0.0,17,0.00,,---,0.00,VWS V14.01,2013-05-26 23:30:00,
2013-05-26 19:35:00,68.9,22.3,29.12,SW,218,0.0,5.4,17,0.00,,---,0.00,VWS V14.01,2013-05-26 23:35:00,
2013-05-26 19:40:00,68.7,22.2,29.12,SW,218,0.0,0.0,17,0.00,,---,0.00,VWS V14.01,2013-05-26 23:40:00,
2013-05-26 19:45:00,68.5,22.0,29.12,SW,218,0.0,0.0,17,0.00,,---,0.00,VWS V14.01,2013-05-26 23:45:00,
2013-05-26 19:50:00,68.4,21.9,29.12,SW,218,0.0,0.0,17,0.00,,---,0.00,VWS V14.01,2013-05-26 23:50:00,
2013-05-26 19:55:00,68.0,21.6,29.12,WSW,254,0.0,0.0,17,0.00,,---,0.00,VWS V14.01,2013-05-26 23:55:00,
2013-05-26 20:00:00,67.6,21.3,29.12,SE,141,0.0,4.5,17,0.00,,---,0.00,VWS V14.01,2013-05-27 00:00:00,
2013-05-26 20:05:00,67.5,25.0,29.12,WSW,238,0.0,0.0,20,0.00,,---,0.00,VWS V14.01,2013-05-27 00:05:00,
2013-05-26 20:10:00,67.5,25.0,29.12,SSW,213,0.0,0.0,20,0.00,,---,0.00,VWS V14.01,2013-05-27 00:10:00,
2013-05-26 20:15:00,67.1,24.7,29.12,SSW,197,0.0,0.0,20,0.00,,---,0.00,VWS V14.01,2013-05-27 00:15:00,
2013-05-26 20:20:00,66.7,24.4,29.12,SW,231,0.0,3.6,20,0.00,,---,0.00,VWS V14.01,2013-05-27 00:20:00,
2013-05-26 20:25:00,66.6,26.6,29.12,WSW,238,0.0,0.0,22,0.00,,---,0.00,VWS V14.01,2013-05-27 00:25:00,
2013-05-26 20:30:00,66.4,26.4,29.12,SE,144,0.0,3.6,22,0.00,,---,0.00,VWS V14.01,2013-05-27 00:30:00,
2013-05-26 20:35:00,66.2,26.3,29.12,SE,144,0.0,0.0,22,0.00,,---,0.00,VWS V14.01,2013-05-27 00:35:00,
2013-05-26 20:40:00,66.0,27.2,29.12,South,173,0.0,0.0,23,0.00,,---,0.00,VWS V14.01,2013-05-27 00:40:00,
2013-05-26 20:45:00,65.8,27.0,29.12,SSE,166,0.0,0.0,23,0.00,,---,0.00,VWS V14.01,2013-05-27 00:45:00,
2013-05-26 20:50:00,65.7,26.9,29.12,SSE,166,0.0,0.0,23,0.00,,---,0.00,VWS V14.01,2013-05-27 00:50:00,
2013-05-26 20:55:00,65.7,26.9,29.12,SSE,166,0.0,0.0,23,0.00,,---,0.00,VWS V14.01,2013-05-27 00:55:00,
2013-05-26 21:00:00,65.3,26.6,29.12,SSE,166,0.0,0.0,23,0.00,,---,0.00,VWS V14.01,2013-05-27 01:00:00,
2013-05-26 21:05:00,65.1,27.5,29.12,SSE,166,0.0,0.0,24,0.00,,---,0.00,VWS V14.01,2013-05-27 01:05:00,
2013-05-26 21:10:00,65.1,27.5,29.12,SSE,166,0.0,0.0,24,0.00,,---,0.00,VWS V14.01,2013-05-27 01:10:00,
2013-05-26 21:15:00,64.9,27.3,29.12,SSE,166,0.0,0.0,24,0.00,,---,0.00,VWS V14.01,2013-05-27 01:15:00,
2013-05-26 21:20:00,64.8,27.2,29.12,SSE,166,0.0,0.0,24,0.00,,---,0.00,VWS V14.01,2013-05-27 01:20:00,
2013-05-26 21:25:00,64.6,28.0,29.12,SSE,166,0.0,0.0,25,0.00,,---,0.00,VWS V14.01,2013-05-27 01:25:00,
2013-05-26 21:30:00,64.6,28.0,29.12,SSE,166,0.0,0.0,25,0.00,,---,0.00,VWS V14.01,2013-05-27 01:30:00,
2013-05-26 21:35:00,64.4,28.8,29.12,SSE,166,0.0,0.0,26,0.00,,---,0.00,VWS V14.01,2013-05-27 01:35:00,
2013-05-26 21:40:00,64.2,28.6,29.12,SSE,166,0.0,0.0,26,0.00,,---,0.00,VWS V14.01,2013-05-27 01:40:00,
2013-05-26 21:45:00,64.2,28.6,29.15,SSE,166,0.0,0.0,26,0.00,,---,0.00,VWS V14.01,2013-05-27 01:45:00,
2013-05-26 21:50:00,64.0,28.5,29.15,SSE,166,0.0,0.0,26,0.00,,---,0.00,VWS V14.01,2013-05-27 01:50:00,
2013-05-26 21:55:00,63.9,27.4,29.15,SE,139,0.0,0.0,25,0.00,,---,0.00,VWS V14.01,2013-05-27 01:55:00,
2013-05-26 22:00:00,63.9,27.4,29.12,ESE,121,0.0,0.0,25,0.00,,---,0.00,VWS V14.01,2013-05-27 02:00:00,
2013-05-26 22:05:00,63.7,27.2,29.12,SSW,200,0.0,0.0,25,0.00,,---,0.00,VWS V14.01,2013-05-27 02:05:00,
2013-05-26 22:10:00,63.7,27.2,29.12,SE,126,0.0,0.0,25,0.00,,---,0.00,VWS V14.01,2013-05-27 02:10:00,
2013-05-26 22:15:00,63.5,28.0,29.15,SE,126,0.0,0.0,26,0.00,,---,0.00,VWS V14.01,2013-05-27 02:15:00,
2013-05-26 22:20:00,63.5,28.0,29.15,SE,126,0.0,0.0,26,0.00,,---,0.00,VWS V14.01,2013-05-27 02:20:00,
2013-05-26 22:25:00,63.5,27.1,29.15,SE,126,0.0,0.0,25,0.00,,---,0.00,VWS V14.01,2013-05-27 02:25:00,
2013-05-26 22:30:00,63.5,27.1,29.15,SE,126,0.0,0.0,25,0.00,,---,0.00,VWS V14.01,2013-05-27 02:30:00,
2013-05-26 22:35:00,63.7,27.2,29.15,SE,126,0.0,0.0,25,0.00,,---,0.00,VWS V14.01,2013-05-27 02:35:00,
2013-05-26 22:40:00,63.7,27.2,29.15,SE,126,0.0,0.0,25,0.00,,---,0.00,VWS V14.01,2013-05-27 02:40:00,
2013-05-26 22:45:00,63.7,27.2,29.15,SE,126,0.0,0.0,25,0.00,,---,0.00,VWS V14.01,2013-05-27 02:45:00,
2013-05-26 22:50:00,63.7,28.2,29.15,SE,126,0.0,0.0,26,0.00,,---,0.00,VWS V14.01,2013-05-27 02:50:00,
2013-05-26 22:55:00,63.7,27.2,29.15,SE,126,0.0,0.0,25,0.00,,---,0.00,VWS V14.01,2013-05-27 02:55:00,
2013-05-26 23:00:00,63.7,27.2,29.15,SE,126,0.0,0.0,25,0.00,,---,0.00,VWS V14.01,2013-05-27 03:00:00,
2013-05-26 23:05:00,63.7,27.2,29.15,SE,126,0.0,0.0,25,0.00,,---,0.00,VWS V14.01,2013-05-27 03:05:00,
2013-05-26 23:10:00,63.5,28.0,29.15,SE,126,0.0,0.0,26,0.00,,---,0.00,VWS V14.01,2013-05-27 03:10:00,
2013-05-26 23:15:00,63.5,29.8,29.15,SE,126,0.0,0.0,28,0.00,,---,0.00,VWS V14.01,2013-05-27 03:15:00,
2013-05-26 23:20:00,63.3,29.7,29.15,SE,126,0.0,0.0,28,0.00,,---,0.00,VWS V14.01,2013-05-27 03:20:00,
2013-05-26 23:25:00,63.1,30.4,29.15,ESE,104,0.0,2.7,29,0.00,,---,0.00,VWS V14.01,2013-05-27 03:25:00,
2013-05-26 23:30:00,63.1,31.2,29.15,ESE,106,3.6,4.0,30,0.00,,---,0.00,VWS V14.01,2013-05-27 03:30:00,
2013-05-26 23:35:00,63.0,31.1,29.15,ESE,106,0.0,0.0,30,0.00,,---,0.00,VWS V14.01,2013-05-27 03:35:00,
2013-05-26 23:40:00,63.0,33.4,29.15,ESE,118,0.0,0.0,33,0.00,,---,0.00,VWS V14.01,2013-05-27 03:40:00,
2013-05-26 23:45:00,62.6,33.9,29.15,ESE,119,3.1,3.6,34,0.00,,---,0.00,VWS V14.01,2013-05-27 03:45:00,
2013-05-26 23:50:00,62.2,34.3,29.15,ESE,106,0.0,3.1,35,0.00,,---,0.00,VWS V14.01,2013-05-27 03:50:00,
2013-05-26 23:55:00,61.7,35.9,29.15,ESE,106,3.6,4.0,38,0.00,,---,0.00,VWS V14.01,2013-05-27 03:55:00,
2013-05-26 23:59:00,64.9,64.1,28.88,SSE,160,0.0,0.0,97,0.00,,---,1.65,VWS V14.01,2013-05-27 03:59:00,